Terminal Aerodrome Forecast
Issued by NWS Louisville, KY

Home | Current Version | Previous Version | Text Only | Print | Product List | Glossary On
Versions: 1 2 3 4 5 6 7 8 9 10 11 12 13
924
FTUS43 KLMK 110529
TAFSDF
TAF
KSDF 110529Z 1106/1212 VRB04KT P6SM SKC
     FM111600 20012G20KT P6SM BKN150
     FM120200 26013KT P6SM BKN040
     FM120500 29015KT P6SM OVC030=

USA.gov is the U.S. government's official web portal to all federal, state and local government web resources and services.